createdAt,value
2022-10-01T00:01:48.772Z,7.16
2022-10-01T00:07:07.282Z,7.09
2022-10-01T00:12:27.422Z,7.04
2022-10-01T00:17:46.056Z,6.83
2022-10-01T00:23:05.290Z,6.39
2022-10-01T00:28:25.062Z,6.12
2022-10-01T00:33:42.994Z,5.88
2022-10-01T00:39:02.745Z,5.95
2022-10-01T00:44:23.096Z,5.91
2022-10-01T00:49:41.507Z,5.78
2022-10-01T00:55:01.878Z,5.64
2022-10-01T01:01:36.430Z,5.51
2022-10-01T01:05:51.438Z,5.48
2022-10-01T01:11:00.794Z,5.37
2022-10-01T01:16:19.792Z,5.33
2022-10-01T01:21:39.835Z,5.31
2022-10-01T01:26:58.354Z,5.37
2022-10-01T01:32:17.623Z,5.44
2022-10-01T01:37:37.202Z,5.71
2022-10-01T01:42:56.879Z,5.81
2022-10-01T01:48:15.031Z,6.4
2022-10-01T01:53:34.985Z,6.95
2022-10-01T01:58:53.221Z,6.99
2022-10-01T02:04:13.124Z,7.15
2022-10-01T02:10:47.280Z,7.4
2022-10-01T02:14:52.269Z,7.58
2022-10-01T02:20:11.223Z,7.73
2022-10-01T02:25:30.332Z,7.77
2022-10-01T02:30:49.322Z,7.87
2022-10-01T02:36:08.607Z,7.97
2022-10-01T02:41:28.417Z,8.07
2022-10-01T02:46:54.992Z,8.22
2022-10-01T02:52:06.227Z,8.34
2022-10-01T02:57:25.418Z,8.41
2022-10-01T03:02:45.782Z,8.52
2022-10-01T03:08:03.973Z,8.52
2022-10-01T03:13:23.284Z,8.37
2022-10-01T03:18:43.831Z,8.49
2022-10-01T03:24:02.620Z,8.8
2022-10-01T03:29:21.513Z,8.87
2022-10-01T03:34:40.905Z,9
2022-10-01T03:39:59.811Z,9.03
2022-10-01T03:45:19.752Z,9.13
2022-10-01T03:50:39.038Z,9.14
2022-10-01T03:55:58.391Z,9.18
2022-10-01T04:01:17.867Z,9.28
2022-10-01T04:06:36.806Z,9.34
2022-10-01T04:11:56.140Z,9.43
2022-10-01T04:17:15.363Z,9.37
2022-10-01T04:22:34.135Z,9.32
2022-10-01T04:27:53.143Z,9.37
2022-10-01T04:33:12.252Z,9.43
2022-10-01T04:38:31.059Z,9.51
2022-10-01T04:43:49.810Z,9.51
2022-10-01T04:49:09.027Z,9.54
2022-10-01T04:54:28.212Z,9.52
2022-10-01T04:59:47.441Z,9.57
2022-10-01T05:05:06.714Z,9.62
2022-10-01T05:10:26.302Z,9.6
2022-10-01T05:15:45.899Z,9.67
2022-10-01T05:21:04.984Z,9.77
2022-10-01T05:26:23.806Z,9.91
2022-10-01T05:31:43.276Z,9.95
2022-10-01T05:37:02.697Z,9.97
2022-10-01T05:43:36.908Z,10.05
2022-10-01T05:47:53.429Z,10.08
2022-10-01T05:53:02.859Z,10.12
2022-10-01T05:58:21.699Z,10.17
2022-10-01T06:03:39.975Z,10.29
2022-10-01T06:08:58.686Z,10.34
2022-10-01T06:14:16.501Z,10.34
2022-10-01T06:19:35.905Z,10.39
2022-10-01T06:24:56.815Z,10.3
2022-10-01T06:30:15.339Z,10.06
2022-10-01T06:35:34.193Z,9.77
2022-10-01T06:40:52.663Z,9.42
2022-10-01T06:46:12.307Z,9.24
2022-10-01T06:51:31.926Z,9.14
2022-10-01T06:56:49.633Z,9.04
2022-10-01T07:02:08.569Z,9.07
2022-10-01T07:07:30.046Z,9.03
2022-10-01T07:12:46.581Z,9.1
2022-10-01T07:18:06.115Z,9.07
2022-10-01T07:23:24.483Z,9.16
2022-10-01T07:28:44.288Z,9.16
2022-10-01T07:34:03.089Z,9.18
2022-10-01T07:39:23.336Z,9.13
2022-10-01T07:44:42.195Z,9.2
2022-10-01T07:50:01.760Z,9.16
2022-10-01T07:55:21.962Z,9.14
2022-10-01T08:01:56.147Z,9.2
2022-10-01T08:05:59.634Z,9.16
2022-10-01T08:11:18.733Z,9.1
2022-10-01T08:16:38.113Z,9.1
2022-10-01T08:21:57.741Z,9.18
2022-10-01T08:28:31.949Z,9.24
2022-10-01T08:32:46.513Z,9.39
2022-10-01T08:37:55.899Z,9.45
2022-10-01T08:43:14.645Z,9.39
2022-10-01T08:48:34.177Z,9.47
2022-10-01T08:53:53.013Z,9.37
2022-10-01T08:59:12.851Z,9.3
2022-10-01T09:04:31.270Z,9.3
2022-10-01T09:09:51.604Z,9.28
2022-10-01T09:16:25.827Z,9.27
2022-10-01T09:20:29.539Z,9.35
2022-10-01T09:27:28.115Z,9.39
2022-10-01T09:27:56.114Z,9.42
2022-10-01T09:38:34.630Z,9.54
2022-10-01T09:43:53.564Z,9.6
2022-10-01T09:49:12.632Z,9.62
2022-10-01T09:54:31.280Z,9.67
2022-10-01T10:03:04.484Z,9.68
2022-10-01T10:05:09.781Z,9.68
2022-10-01T10:10:27.859Z,9.68
2022-10-01T10:17:26.497Z,9.74
2022-10-01T10:21:07.537Z,9.82
2022-10-01T10:26:25.816Z,9.93
2022-10-01T10:33:24.442Z,9.96
2022-10-01T10:37:04.519Z,10.05
2022-10-01T10:44:38.395Z,10.22
2022-10-01T10:48:18.509Z,10.53
2022-10-01T10:53:02.559Z,10.72
2022-10-01T10:59:36.735Z,10.85
2022-10-01T11:03:53.259Z,10.88
2022-10-01T11:12:26.312Z,10.9
2022-10-01T11:16:41.699Z,10.87
2022-10-01T11:30:17.298Z,11.11
2022-10-01T11:40:55.952Z,10.91
2022-10-01T11:49:28.988Z,10.94
2022-10-01T11:53:45.559Z,11.23
2022-10-01T11:56:53.875Z,11.29
2022-10-01T12:02:13.598Z,11.19
2022-10-01T12:10:46.628Z,11.16
2022-10-01T12:19:19.693Z,11.16
2022-10-01T12:28:52.186Z,11.22
2022-10-01T12:34:06.612Z,11.23
2022-10-01T12:39:25.882Z,11.22
2022-10-01T12:44:45.215Z,11.18
2022-10-01T12:50:03.093Z,11.16
2022-10-01T12:55:22.400Z,11.15
2022-10-01T13:00:42.615Z,11.25
2022-10-01T13:07:16.727Z,11.33
2022-10-01T13:16:41.895Z,11.56
2022-10-01T13:21:59.648Z,11.71
2022-10-01T13:28:58.297Z,11.74
2022-10-01T13:37:58.732Z,11.71
2022-10-01T13:46:31.921Z,11.89
2022-10-01T13:55:04.846Z,12.2
2022-10-01T14:04:34.870Z,12.32
2022-10-01T14:09:54.115Z,12.51
2022-10-01T14:15:13.551Z,12.68
2022-10-01T14:20:31.167Z,12.78
2022-10-01T14:25:53.597Z,12.72
2022-10-01T14:31:09.686Z,12.65
2022-10-01T14:37:43.822Z,12.68
2022-10-01T14:41:49.370Z,12.73
2022-10-01T14:50:22.370Z,12.86
2022-10-01T14:52:27.361Z,12.95
2022-10-01T14:57:46.224Z,12.96
2022-10-01T15:03:05.251Z,13.04
2022-10-01T15:09:39.407Z,13.16
2022-10-01T15:13:44.286Z,13.21
2022-10-01T15:19:02.071Z,13.24
2022-10-01T15:24:30.864Z,13.23
2022-10-01T15:29:40.999Z,13.26
2022-10-01T15:36:15.201Z,13.36
2022-10-01T15:40:20.624Z,13.4
2022-10-01T15:45:38.275Z,13.36
2022-10-01T15:50:58.328Z,13.36
2022-10-01T15:56:17.266Z,13.44
2022-10-01T16:02:51.424Z,13.37
2022-10-01T16:12:17.099Z,13.38
2022-10-01T16:20:51.078Z,13.4
2022-10-01T16:25:04.769Z,13.38
2022-10-01T16:28:38.295Z,13.36
2022-10-01T16:35:12.458Z,13.36
2022-10-01T16:38:52.877Z,13.37
2022-10-01T16:47:25.975Z,13.46
2022-10-01T16:55:59.025Z,13.41
2022-10-01T17:00:09.200Z,13.24
2022-10-01T17:05:28.080Z,13.24
2022-10-01T17:21:26.310Z,13.34
2022-10-01T17:26:45.599Z,13.33
2022-10-01T17:32:03.613Z,13.3
2022-10-01T17:37:22.640Z,13.27
2022-10-01T17:42:41.857Z,13.24
2022-10-01T17:48:01.381Z,13.16
2022-10-01T17:53:20.806Z,13.13
2022-10-01T17:58:42.921Z,13.06
2022-10-01T18:03:59.035Z,12.97
2022-10-01T18:09:18.728Z,12.88
2022-10-01T18:14:38.058Z,12.86
2022-10-01T18:19:56.083Z,12.88
2022-10-01T18:25:16.025Z,12.9
2022-10-01T18:30:35.401Z,12.92
2022-10-01T18:35:54.919Z,12.89
2022-10-01T18:41:13.937Z,12.86
2022-10-01T18:47:48.145Z,12.9
2022-10-01T18:51:53.099Z,12.9
2022-10-01T18:57:10.823Z,12.95
2022-10-01T19:02:30.369Z,12.99
2022-10-01T19:07:49.781Z,13
2022-10-01T19:13:08.870Z,13
2022-10-01T19:18:27.427Z,13
2022-10-01T19:23:46.569Z,13.02
2022-10-01T19:29:06.003Z,13.07
2022-10-01T19:34:25.740Z,13.04
2022-10-01T19:39:45.350Z,13.04
2022-10-01T19:45:04.279Z,13.07
2022-10-01T19:50:23.876Z,13.04
2022-10-01T19:55:42.050Z,13.02
2022-10-01T20:01:02.396Z,13.06
2022-10-01T20:07:36.499Z,13.03
2022-10-01T20:11:42.272Z,13.07
2022-10-01T20:16:59.305Z,13.04
2022-10-01T20:22:19.554Z,13.09
2022-10-01T20:27:38.778Z,13.09
2022-10-01T20:32:57.716Z,13.04
2022-10-01T20:38:17.988Z,13
2022-10-01T20:43:37.410Z,12.96
2022-10-01T20:48:56.029Z,12.85
2022-10-01T20:54:15.832Z,12.73
2022-10-01T20:59:34.480Z,12.66
2022-10-01T21:04:54.534Z,12.52
2022-10-01T21:11:28.693Z,12.45
2022-10-01T21:20:53.652Z,12.39
2022-10-01T21:26:19.266Z,12.37
2022-10-01T21:31:31.281Z,12.39
2022-10-01T21:38:05.396Z,12.29
2022-10-01T21:47:30.585Z,12.24
2022-10-01T21:52:50.305Z,12.25
2022-10-01T21:58:09.985Z,12.31
2022-10-01T22:03:29.746Z,12.34
2022-10-01T22:08:49.158Z,12.39
2022-10-01T22:14:07.983Z,12.39
2022-10-01T22:19:26.332Z,12.41
2022-10-01T22:26:24.891Z,12.45
2022-10-01T22:30:04.217Z,12.41
2022-10-01T22:37:38.907Z,12.44
2022-10-01T22:46:03.416Z,12.51
2022-10-01T22:51:20.789Z,12.52
2022-10-01T22:56:41.124Z,12.6
2022-10-01T23:01:59.911Z,12.63
2022-10-01T23:08:34.057Z,12.65
2022-10-01T23:12:38.991Z,12.69
2022-10-01T23:17:57.771Z,12.82
2022-10-01T23:23:16.632Z,12.85
2022-10-01T23:31:49.770Z,12.82
2022-10-01T23:40:22.769Z,12.66
2022-10-01T23:44:32.097Z,12.72
2022-10-01T23:49:51.350Z,12.8
2022-10-01T23:55:09.874Z,12.83
